createdAt,value
2023-01-25T00:01:56.803Z,101693.66
2023-01-25T00:04:24.216Z,101689.47
2023-01-25T00:06:51.528Z,101690.00
2023-01-25T00:09:19.576Z,101685.63
2023-01-25T00:11:46.402Z,101692.25
2023-01-25T00:14:14.392Z,101706.41
2023-01-25T00:16:41.414Z,101699.28
2023-01-25T00:19:09.113Z,101706.81
2023-01-25T00:21:36.255Z,101707.78
2023-01-25T00:24:03.772Z,101708.22
2023-01-25T00:26:32.265Z,101700.81
2023-01-25T00:28:59.135Z,101700.28
2023-01-25T00:31:48.998Z,101704.59
2023-01-25T00:34:24.615Z,101713.72
2023-01-25T00:36:51.673Z,101707.75
2023-01-25T00:39:18.293Z,101704.06
2023-01-25T00:41:44.902Z,101704.63
2023-01-25T00:44:11.640Z,101710.47
2023-01-25T00:46:38.588Z,101707.41
2023-01-25T00:49:05.265Z,101714.94
2023-01-25T00:51:31.874Z,101707.88
2023-01-25T00:53:58.547Z,101710.00
2023-01-25T00:56:25.280Z,101714.25
2023-01-25T00:58:51.881Z,101713.66
2023-01-25T01:01:18.626Z,101718.91
2023-01-25T01:03:45.303Z,101722.28
2023-01-25T01:06:12.746Z,101721.47
2023-01-25T01:08:41.204Z,101719.84
2023-01-25T01:11:11.102Z,101722.59
2023-01-25T01:13:38.328Z,101717.69
2023-01-25T01:16:07.968Z,101714.94
2023-01-25T01:18:36.038Z,101722.13
2023-01-25T01:21:02.973Z,101721.47
2023-01-25T01:23:30.013Z,101720.47
2023-01-25T01:25:59.868Z,101715.75
2023-01-25T01:28:28.557Z,101724.19
2023-01-25T01:31:00.698Z,101719.34
2023-01-25T01:33:27.367Z,101726.31
2023-01-25T01:35:53.971Z,101721.88
2023-01-25T01:38:20.726Z,101724.72
2023-01-25T01:40:48.519Z,101726.44
2023-01-25T01:43:24.785Z,101718.72
2023-01-25T01:46:01.001Z,101716.97
2023-01-25T01:48:39.535Z,101718.34
2023-01-25T01:51:22.623Z,101717.28
2023-01-25T01:54:05.649Z,101710.38
2023-01-25T01:56:55.708Z,101711.25
2023-01-25T01:59:28.521Z,101703.69
2023-01-25T02:01:55.663Z,101699.50
2023-01-25T02:04:25.017Z,101700.03
2023-01-25T02:07:15.702Z,101698.66
2023-01-25T02:09:44.414Z,101698.84
2023-01-25T02:12:13.198Z,101701.81
2023-01-25T02:14:47.370Z,101696.19
2023-01-25T02:17:14.150Z,101695.50
2023-01-25T02:19:53.134Z,101695.56
2023-01-25T02:22:25.732Z,101695.63
2023-01-25T02:25:05.903Z,101693.59
2023-01-25T02:27:44.808Z,101698.78
2023-01-25T02:30:11.812Z,101700.91
2023-01-25T02:32:38.663Z,101693.13
2023-01-25T02:35:06.338Z,101693.44
2023-01-25T02:37:33.315Z,101686.28
2023-01-25T02:40:00.095Z,101678.38
2023-01-25T02:42:30.883Z,101673.28
2023-01-25T02:44:57.555Z,101669.56
2023-01-25T02:47:24.201Z,101672.06
2023-01-25T02:49:50.847Z,101671.88
2023-01-25T02:52:17.489Z,101661.22
2023-01-25T02:54:44.088Z,101667.91
2023-01-25T02:57:12.198Z,101666.13
2023-01-25T02:59:38.863Z,101655.44
2023-01-25T03:02:05.486Z,101658.81
2023-01-25T03:04:32.072Z,101661.78
2023-01-25T03:06:58.675Z,101655.16
2023-01-25T03:09:25.351Z,101652.81
2023-01-25T03:11:52.024Z,101662.91
2023-01-25T03:14:18.673Z,101659.16
2023-01-25T03:16:45.262Z,101653.69
2023-01-25T03:19:12.057Z,101650.19
2023-01-25T03:21:40.825Z,101650.38
2023-01-25T03:24:09.734Z,101649.72
2023-01-25T03:26:36.359Z,101651.81
2023-01-25T03:29:02.961Z,101644.75
2023-01-25T03:31:29.695Z,101648.09
2023-01-25T03:33:56.427Z,101650.66
2023-01-25T03:36:23.257Z,101651.06
2023-01-25T03:38:49.874Z,101652.19
2023-01-25T03:41:16.475Z,101658.28
2023-01-25T03:43:43.064Z,101654.22
2023-01-25T03:46:09.683Z,101664.88
2023-01-25T03:48:36.369Z,101667.28
2023-01-25T03:51:02.999Z,101661.47
2023-01-25T03:53:31.010Z,101660.19
2023-01-25T03:56:04.187Z,101663.56
2023-01-25T03:58:31.746Z,101655.06
2023-01-25T04:00:59.965Z,101665.03
2023-01-25T04:03:30.161Z,101655.91
2023-01-25T04:05:58.630Z,101665.91
2023-01-25T04:08:26.392Z,101661.81
2023-01-25T04:10:56.676Z,101657.56
2023-01-25T04:13:25.093Z,101660.28
2023-01-25T04:15:52.213Z,101663.59
2023-01-25T04:18:19.237Z,101662.88
2023-01-25T04:20:46.267Z,101668.50
2023-01-25T04:23:13.117Z,101663.78
2023-01-25T04:25:40.001Z,101669.69
2023-01-25T04:28:06.635Z,101660.97
2023-01-25T04:30:33.327Z,101661.16
2023-01-25T04:33:06.108Z,101672.91
2023-01-25T04:35:32.708Z,101669.75
2023-01-25T04:38:00.217Z,101669.88
2023-01-25T04:40:27.376Z,101666.72
2023-01-25T04:42:54.091Z,101671.19
2023-01-25T04:45:20.892Z,101666.97
2023-01-25T04:47:47.518Z,101660.66
2023-01-25T04:50:14.674Z,101665.94
2023-01-25T04:52:41.422Z,101665.00
2023-01-25T04:55:08.943Z,101658.84
2023-01-25T04:57:35.715Z,101652.03
2023-01-25T05:00:02.314Z,101657.22
2023-01-25T05:02:28.954Z,101661.69
2023-01-25T05:04:55.653Z,101658.31
2023-01-25T05:07:22.398Z,101660.38
2023-01-25T05:09:49.033Z,101660.66
2023-01-25T05:12:15.636Z,101663.66
2023-01-25T05:14:42.247Z,101664.72
2023-01-25T05:17:09.002Z,101662.41
2023-01-25T05:19:35.891Z,101665.44
2023-01-25T05:22:04.048Z,101669.75
2023-01-25T05:24:32.524Z,101667.84
2023-01-25T05:26:59.880Z,101663.34
2023-01-25T05:29:30.685Z,101667.13
2023-01-25T05:31:58.928Z,101665.28
2023-01-25T05:34:26.179Z,101662.31
2023-01-25T05:36:52.889Z,101667.56
2023-01-25T05:39:19.575Z,101663.53
2023-01-25T05:41:46.187Z,101664.25
2023-01-25T05:44:12.792Z,101661.00
2023-01-25T05:46:39.428Z,101670.66
2023-01-25T05:49:06.102Z,101663.13
2023-01-25T05:51:33.168Z,101662.78
2023-01-25T05:53:59.769Z,101659.66
2023-01-25T05:56:26.364Z,101661.91
2023-01-25T05:58:54.595Z,101669.69
2023-01-25T06:01:21.408Z,101667.66
2023-01-25T06:03:48.541Z,101673.03
2023-01-25T06:06:15.165Z,101674.97
2023-01-25T06:08:42.025Z,101673.72
2023-01-25T06:11:15.993Z,101677.31
2023-01-25T06:13:43.433Z,101673.34
2023-01-25T06:16:10.699Z,101684.75
2023-01-25T06:18:38.087Z,101674.78
2023-01-25T06:21:05.643Z,101685.63
2023-01-25T06:23:33.002Z,101687.59
2023-01-25T06:26:03.376Z,101692.63
2023-01-25T06:28:31.431Z,101695.56
2023-01-25T06:31:06.846Z,101698.56
2023-01-25T06:33:33.881Z,101694.25
2023-01-25T06:36:05.864Z,101690.41
2023-01-25T06:38:33.069Z,101693.00
2023-01-25T06:41:01.249Z,101697.25
2023-01-25T06:43:30.710Z,101697.22
2023-01-25T06:46:01.237Z,101698.91
2023-01-25T06:48:29.262Z,101699.03
2023-01-25T06:50:58.825Z,101695.72
2023-01-25T06:53:27.341Z,101689.81
2023-01-25T06:56:05.761Z,101693.34
2023-01-25T06:58:32.801Z,101693.28
2023-01-25T07:01:08.134Z,101687.72
2023-01-25T07:03:35.120Z,101689.84
2023-01-25T07:06:04.699Z,101689.53
2023-01-25T07:08:32.385Z,101696.63
2023-01-25T07:11:01.421Z,101704.53
2023-01-25T07:13:29.755Z,101693.53
2023-01-25T07:16:05.455Z,101688.84
2023-01-25T07:18:33.182Z,101688.16
2023-01-25T07:21:10.458Z,101689.94
2023-01-25T07:23:37.202Z,101694.19
2023-01-25T07:26:05.246Z,101709.38
2023-01-25T07:28:32.610Z,101695.38
2023-01-25T07:31:06.658Z,101701.41
2023-01-25T07:33:34.547Z,101700.03
2023-01-25T07:36:02.992Z,101699.47
2023-01-25T07:38:30.094Z,101698.72
2023-01-25T07:40:56.856Z,101699.78
2023-01-25T07:43:24.002Z,101704.94
2023-01-25T07:45:51.397Z,101701.47
2023-01-25T07:48:19.940Z,101704.19
2023-01-25T07:50:47.108Z,101702.00
2023-01-25T07:53:13.936Z,101701.31
2023-01-25T07:55:40.553Z,101694.09
2023-01-25T07:58:08.652Z,101690.63
2023-01-25T08:00:35.356Z,101697.53
2023-01-25T08:03:02.023Z,101696.84
2023-01-25T08:05:28.655Z,101695.41
2023-01-25T08:07:55.285Z,101702.94
2023-01-25T08:10:21.956Z,101698.56
2023-01-25T08:12:48.566Z,101698.59
2023-01-25T08:15:15.313Z,101702.28
2023-01-25T08:17:41.970Z,101699.03
2023-01-25T08:20:09.281Z,101689.84
2023-01-25T08:22:35.964Z,101690.47
2023-01-25T08:25:04.038Z,101693.44
2023-01-25T08:27:30.713Z,101686.09
2023-01-25T08:29:57.376Z,101686.38
2023-01-25T08:32:25.087Z,101690.94
2023-01-25T08:34:51.697Z,101680.78
2023-01-25T08:37:18.309Z,101685.28
2023-01-25T08:39:45.097Z,101679.19
2023-01-25T08:42:11.714Z,101682.75
2023-01-25T08:44:38.318Z,101682.03
2023-01-25T08:47:04.965Z,101687.53
2023-01-25T08:49:31.596Z,101679.94
2023-01-25T08:51:58.190Z,101682.44
2023-01-25T08:54:25.139Z,101684.78
2023-01-25T08:56:51.725Z,101684.78
2023-01-25T08:59:18.340Z,101677.47
2023-01-25T09:01:45.139Z,101677.75
2023-01-25T09:04:11.788Z,101678.31
2023-01-25T09:06:38.439Z,101679.78
2023-01-25T09:09:05.050Z,101673.13
2023-01-25T09:11:34.522Z,101682.78
2023-01-25T09:14:01.161Z,101669.13
2023-01-25T09:16:27.776Z,101671.78
2023-01-25T09:18:56.574Z,101674.34
2023-01-25T09:21:23.174Z,101668.03
2023-01-25T09:24:05.670Z,101663.34
2023-01-25T09:26:39.334Z,101657.16
2023-01-25T09:29:06.173Z,101663.88
2023-01-25T09:31:32.911Z,101657.31
2023-01-25T09:33:59.647Z,101665.94
2023-01-25T09:36:26.277Z,101660.78
2023-01-25T09:38:53.239Z,101655.50
2023-01-25T09:41:28.972Z,101657.38
2023-01-25T09:44:32.168Z,101654.16
2023-01-25T09:47:04.053Z,101652.75
2023-01-25T09:49:55.038Z,101647.28
2023-01-25T09:52:57.442Z,101649.00
2023-01-25T09:55:27.289Z,101645.75
2023-01-25T09:57:55.749Z,101632.88
2023-01-25T10:00:33.268Z,101636.47
2023-01-25T10:03:16.069Z,101632.50
2023-01-25T10:05:46.092Z,101626.66
2023-01-25T10:08:42.485Z,101622.50
2023-01-25T10:11:19.126Z,101610.94
2023-01-25T10:13:46.094Z,101610.31
2023-01-25T10:16:44.717Z,101614.31
2023-01-25T10:19:30.741Z,101611.78
2023-01-25T10:22:11.786Z,101610.22
2023-01-25T10:24:41.381Z,101593.41
2023-01-25T10:27:42.065Z,101595.41
2023-01-25T10:30:28.329Z,101588.66
2023-01-25T10:33:01.196Z,101591.28
2023-01-25T10:35:35.831Z,101581.25
2023-01-25T10:38:11.974Z,101578.22
2023-01-25T10:40:48.698Z,101581.34
2023-01-25T10:43:19.129Z,101574.72
2023-01-25T10:45:46.451Z,101576.50
2023-01-25T10:48:19.613Z,101572.03
2023-01-25T10:50:50.492Z,101568.66
2023-01-25T10:53:37.819Z,101568.69
2023-01-25T10:56:04.664Z,101568.06
2023-01-25T10:58:39.889Z,101566.34
2023-01-25T11:01:11.020Z,101562.03
2023-01-25T11:03:40.613Z,101554.22
2023-01-25T11:06:08.846Z,101554.84
2023-01-25T11:08:42.636Z,101548.97
2023-01-25T11:11:27.239Z,101551.09
2023-01-25T11:13:54.714Z,101541.56
2023-01-25T11:16:33.746Z,101531.50
2023-01-25T11:19:01.884Z,101529.44
2023-01-25T11:21:31.161Z,101535.38
2023-01-25T11:24:06.982Z,101525.09
2023-01-25T11:26:35.669Z,101527.91
2023-01-25T11:29:19.599Z,101517.91
2023-01-25T11:31:52.276Z,101517.25
2023-01-25T11:34:22.044Z,101503.91
2023-01-25T11:37:07.880Z,101503.41
2023-01-25T11:39:56.072Z,101496.41
2023-01-25T11:42:37.742Z,101491.53
2023-01-25T11:45:29.453Z,101493.25
2023-01-25T11:48:16.427Z,101480.00
2023-01-25T11:51:13.091Z,101466.97
2023-01-25T11:54:05.592Z,101459.69
2023-01-25T11:57:01.015Z,101452.75
2023-01-25T11:59:36.714Z,101453.19
2023-01-25T12:02:15.835Z,101446.03
2023-01-25T12:04:49.771Z,101445.81
2023-01-25T12:07:34.223Z,101441.31
2023-01-25T12:10:19.695Z,101436.00
2023-01-25T12:12:49.516Z,101439.81
2023-01-25T12:15:43.881Z,101441.59
2023-01-25T12:18:19.613Z,101430.44
2023-01-25T12:21:01.223Z,101431.69
2023-01-25T12:23:48.533Z,101425.75
2023-01-25T12:26:39.032Z,101412.28
2023-01-25T12:29:30.957Z,101416.81
2023-01-25T12:32:21.370Z,101423.84
2023-01-25T12:34:54.531Z,101424.97
2023-01-25T12:37:32.317Z,101420.19
2023-01-25T12:40:03.710Z,101415.00
2023-01-25T12:42:57.488Z,101408.75
2023-01-25T12:45:37.738Z,101410.75
2023-01-25T12:48:20.343Z,101401.25
2023-01-25T12:50:55.320Z,101402.28
2023-01-25T12:53:34.872Z,101399.56
2023-01-25T12:56:05.001Z,101394.34
2023-01-25T12:58:49.945Z,101399.41
2023-01-25T13:01:29.046Z,101392.44
2023-01-25T13:04:04.419Z,101386.44
2023-01-25T13:06:49.153Z,101387.44
2023-01-25T13:09:44.934Z,101387.41
2023-01-25T13:12:12.385Z,101384.59
2023-01-25T13:14:41.036Z,101379.50
2023-01-25T13:17:24.901Z,101379.75
2023-01-25T13:19:51.932Z,101368.59
2023-01-25T13:22:43.462Z,101368.88
2023-01-25T13:25:16.074Z,101376.84
2023-01-25T13:27:42.720Z,101377.47
2023-01-25T13:30:33.819Z,101371.75
2023-01-25T13:33:05.891Z,101370.75
2023-01-25T13:35:36.128Z,101374.63
2023-01-25T13:38:06.657Z,101375.19
2023-01-25T13:40:38.449Z,101374.13
2023-01-25T13:43:20.032Z,101363.75
2023-01-25T13:45:50.984Z,101362.72
2023-01-25T13:48:21.482Z,101365.81
2023-01-25T13:50:56.847Z,101359.69
2023-01-25T13:53:25.463Z,101357.78
2023-01-25T13:55:57.754Z,101363.06
2023-01-25T13:58:30.654Z,101361.09
2023-01-25T14:01:01.016Z,101353.19
2023-01-25T14:03:31.559Z,101356.69
2023-01-25T14:05:59.944Z,101354.13
2023-01-25T14:08:27.071Z,101356.09
2023-01-25T14:10:54.724Z,101353.94
2023-01-25T14:13:21.397Z,101345.66
2023-01-25T14:16:01.879Z,101342.28
2023-01-25T14:18:30.748Z,101344.56
2023-01-25T14:21:20.056Z,101344.03
2023-01-25T14:23:47.855Z,101347.56
2023-01-25T14:26:26.649Z,101347.75
2023-01-25T14:29:02.723Z,101351.97
2023-01-25T14:31:37.268Z,101347.56
2023-01-25T14:34:04.355Z,101344.34
2023-01-25T14:36:33.076Z,101343.06
2023-01-25T14:39:04.578Z,101343.75
2023-01-25T14:41:43.775Z,101342.53
2023-01-25T14:44:16.147Z,101344.19
2023-01-25T14:46:42.893Z,101345.50
2023-01-25T14:49:12.374Z,101340.47
2023-01-25T14:51:45.070Z,101333.22
2023-01-25T14:54:59.375Z,101335.09
2023-01-25T14:57:31.871Z,101338.31
2023-01-25T15:00:00.158Z,101334.34
2023-01-25T15:02:32.786Z,101334.13
2023-01-25T15:05:16.421Z,101333.81
2023-01-25T15:07:52.897Z,101330.19
2023-01-25T15:10:31.966Z,101330.97
2023-01-25T15:13:21.714Z,101330.25
2023-01-25T15:15:55.100Z,101327.09
2023-01-25T15:18:40.270Z,101334.69
2023-01-25T15:21:11.056Z,101336.13
2023-01-25T15:23:37.898Z,101328.97
2023-01-25T15:26:22.869Z,101330.94
2023-01-25T15:28:52.116Z,101328.19
2023-01-25T15:31:23.643Z,101325.28
2023-01-25T15:33:50.519Z,101328.94
2023-01-25T15:36:17.366Z,101328.19
2023-01-25T15:38:44.591Z,101322.97
2023-01-25T15:41:11.294Z,101326.38
2023-01-25T15:43:38.144Z,101329.69
2023-01-25T15:46:06.340Z,101330.69
2023-01-25T15:48:38.361Z,101333.94
2023-01-25T15:51:05.117Z,101327.72
2023-01-25T15:53:31.871Z,101324.03
2023-01-25T15:56:04.600Z,101318.06
2023-01-25T15:58:36.545Z,101322.94
2023-01-25T16:01:03.790Z,101323.50
2023-01-25T16:03:31.102Z,101317.66
2023-01-25T16:06:02.185Z,101314.06
2023-01-25T16:08:29.647Z,101303.59
2023-01-25T16:10:56.816Z,101309.25
2023-01-25T16:13:23.968Z,101306.13
2023-01-25T16:15:56.661Z,101306.59
2023-01-25T16:18:23.257Z,101310.94
2023-01-25T16:20:50.198Z,101307.22
2023-01-25T16:23:16.779Z,101302.63
2023-01-25T16:25:45.247Z,101306.06
2023-01-25T16:28:16.057Z,101301.03
2023-01-25T16:30:43.290Z,101295.91
2023-01-25T16:33:09.920Z,101307.56
2023-01-25T16:35:36.568Z,101308.94
2023-01-25T16:38:03.194Z,101304.59
2023-01-25T16:40:36.471Z,101303.09
2023-01-25T16:43:03.269Z,101310.47
2023-01-25T16:45:30.036Z,101305.47
2023-01-25T16:47:56.946Z,101305.19
2023-01-25T16:50:23.980Z,101295.66
2023-01-25T16:52:50.592Z,101297.94
2023-01-25T16:55:19.001Z,101300.22
2023-01-25T16:57:50.132Z,101302.38
2023-01-25T17:00:17.243Z,101290.91
2023-01-25T17:02:58.309Z,101295.00
2023-01-25T17:05:29.208Z,101292.53
2023-01-25T17:07:55.838Z,101285.31
2023-01-25T17:10:22.575Z,101285.53
2023-01-25T17:12:49.229Z,101282.19
2023-01-25T17:15:16.164Z,101282.25
2023-01-25T17:17:42.783Z,101287.53
2023-01-25T17:20:10.418Z,101285.06
2023-01-25T17:22:37.266Z,101280.16
2023-01-25T17:25:05.345Z,101276.56
2023-01-25T17:27:32.113Z,101278.94
2023-01-25T17:30:04.936Z,101279.19
2023-01-25T17:32:32.452Z,101273.63
2023-01-25T17:34:59.168Z,101268.47
2023-01-25T17:37:27.044Z,101268.28
2023-01-25T17:39:53.643Z,101264.63
2023-01-25T17:42:20.291Z,101269.66
2023-01-25T17:44:46.882Z,101260.78
2023-01-25T17:47:13.478Z,101261.06
2023-01-25T17:49:40.133Z,101257.09
2023-01-25T17:52:06.723Z,101261.94
2023-01-25T17:54:33.452Z,101258.72
2023-01-25T17:57:00.055Z,101254.75
2023-01-25T17:59:26.658Z,101252.34
2023-01-25T18:01:53.426Z,101251.31
2023-01-25T18:04:20.037Z,101248.72
2023-01-25T18:06:46.632Z,101249.56
2023-01-25T18:09:13.261Z,101245.59
2023-01-25T18:11:39.949Z,101242.19
2023-01-25T18:14:10.194Z,101240.00
2023-01-25T18:16:39.203Z,101239.53
2023-01-25T18:19:07.078Z,101236.66
2023-01-25T18:21:34.138Z,101238.44
2023-01-25T18:24:24.124Z,101237.56
2023-01-25T18:26:51.800Z,101233.28
2023-01-25T18:29:33.235Z,101238.00
2023-01-25T18:31:59.974Z,101232.44
2023-01-25T18:34:26.597Z,101235.81
2023-01-25T18:36:53.250Z,101232.66
2023-01-25T18:39:19.860Z,101216.59
2023-01-25T18:41:46.526Z,101216.94
2023-01-25T18:44:13.257Z,101208.47
2023-01-25T18:46:39.953Z,101198.78
2023-01-25T18:49:06.588Z,101197.47
2023-01-25T18:51:34.966Z,101188.88
2023-01-25T18:54:03.271Z,101182.31
2023-01-25T18:56:29.904Z,101179.22
2023-01-25T18:58:56.516Z,101182.38
2023-01-25T19:01:23.269Z,101188.84
2023-01-25T19:03:51.127Z,101193.75
2023-01-25T19:06:19.311Z,101193.00
2023-01-25T19:08:46.221Z,101182.63
2023-01-25T19:11:18.530Z,101181.03
2023-01-25T19:13:45.215Z,101175.28
2023-01-25T19:16:23.268Z,101180.78
2023-01-25T19:18:52.205Z,101172.06
2023-01-25T19:21:21.936Z,101169.88
2023-01-25T19:23:48.854Z,101170.59
2023-01-25T19:26:18.329Z,101164.47
2023-01-25T19:28:46.538Z,101169.47
2023-01-25T19:31:16.373Z,101153.97
2023-01-25T19:33:44.038Z,101156.06
2023-01-25T19:36:14.315Z,101155.66
2023-01-25T19:38:41.753Z,101150.50
2023-01-25T19:41:11.385Z,101146.31
2023-01-25T19:43:38.511Z,101142.94
2023-01-25T19:46:16.985Z,101150.66
2023-01-25T19:48:45.238Z,101148.69
2023-01-25T19:51:14.397Z,101144.66
2023-01-25T19:53:42.614Z,101145.34
2023-01-25T19:56:09.269Z,101142.63
2023-01-25T19:58:36.009Z,101139.09
2023-01-25T20:01:07.182Z,101134.38
2023-01-25T20:03:34.043Z,101135.03
2023-01-25T20:06:01.212Z,101133.22
2023-01-25T20:08:32.193Z,101133.94
2023-01-25T20:11:00.794Z,101126.94
2023-01-25T20:13:28.034Z,101124.88
2023-01-25T20:15:55.400Z,101121.25
2023-01-25T20:18:22.861Z,101126.16
2023-01-25T20:21:24.608Z,101123.91
2023-01-25T20:23:53.769Z,101119.47
2023-01-25T20:26:23.013Z,101113.56
2023-01-25T20:28:51.836Z,101114.31
2023-01-25T20:31:28.672Z,101114.28
2023-01-25T20:33:57.802Z,101108.03
2023-01-25T20:36:24.943Z,101112.19
2023-01-25T20:38:51.631Z,101100.13
2023-01-25T20:41:18.686Z,101102.81
2023-01-25T20:43:53.744Z,101101.34
2023-01-25T20:46:22.119Z,101098.38
2023-01-25T20:48:49.613Z,101099.56
2023-01-25T20:51:16.595Z,101090.47
2023-01-25T20:53:45.144Z,101087.56
2023-01-25T20:56:13.555Z,101085.34
2023-01-25T20:58:40.369Z,101086.16
2023-01-25T21:01:15.139Z,101080.81
2023-01-25T21:03:41.877Z,101079.97
2023-01-25T21:06:09.319Z,101074.59
2023-01-25T21:08:36.213Z,101078.84
2023-01-25T21:11:03.474Z,101076.44
2023-01-25T21:13:30.776Z,101070.88
2023-01-25T21:16:19.095Z,101069.69
2023-01-25T21:18:48.039Z,101067.84
2023-01-25T21:21:27.316Z,101063.28
2023-01-25T21:23:56.779Z,101063.41
2023-01-25T21:26:26.176Z,101065.19
2023-01-25T21:28:54.904Z,101065.94
2023-01-25T21:31:29.509Z,101061.72
2023-01-25T21:33:56.580Z,101058.56
2023-01-25T21:36:23.511Z,101063.19
2023-01-25T21:38:52.086Z,101062.25
2023-01-25T21:41:20.072Z,101057.84
2023-01-25T21:43:51.621Z,101055.91
2023-01-25T21:46:19.154Z,101057.22
2023-01-25T21:48:45.727Z,101051.00
2023-01-25T21:51:13.184Z,101052.50
2023-01-25T21:53:39.746Z,101046.53
2023-01-25T21:56:06.663Z,101031.97
2023-01-25T21:58:33.316Z,101041.63
2023-01-25T22:01:01.154Z,101042.41
2023-01-25T22:03:27.791Z,101042.38
2023-01-25T22:05:54.761Z,101041.25
2023-01-25T22:08:21.361Z,101035.97
2023-01-25T22:10:48.177Z,101033.56
2023-01-25T22:13:14.858Z,101033.41
2023-01-25T22:15:41.556Z,101035.16
2023-01-25T22:18:08.300Z,101022.41
2023-01-25T22:20:34.896Z,101021.47
2023-01-25T22:23:01.481Z,101025.59
2023-01-25T22:25:28.141Z,101015.38
2023-01-25T22:27:59.762Z,101009.19
2023-01-25T22:30:26.364Z,101011.22
2023-01-25T22:32:52.964Z,101008.75
2023-01-25T22:35:19.553Z,101008.97
2023-01-25T22:37:46.348Z,101012.09
2023-01-25T22:40:13.510Z,101005.59
2023-01-25T22:42:40.198Z,100998.63
2023-01-25T22:45:07.405Z,101002.81
2023-01-25T22:47:34.107Z,101008.06
2023-01-25T22:50:00.772Z,101002.88
2023-01-25T22:52:27.391Z,100996.16
2023-01-25T22:54:54.101Z,100992.22
2023-01-25T22:57:20.786Z,100994.19
2023-01-25T22:59:47.377Z,100983.84
2023-01-25T23:02:13.979Z,100983.63
2023-01-25T23:04:40.750Z,100990.69
2023-01-25T23:07:07.417Z,100984.56
2023-01-25T23:09:34.031Z,100982.88
2023-01-25T23:12:00.803Z,100984.59
2023-01-25T23:14:27.412Z,100976.91
2023-01-25T23:16:54.588Z,100983.03
2023-01-25T23:19:21.173Z,100977.75
2023-01-25T23:21:47.819Z,100980.16
2023-01-25T23:24:14.504Z,100977.78
2023-01-25T23:26:41.204Z,100970.16
2023-01-25T23:29:12.412Z,100963.56
2023-01-25T23:31:39.453Z,100954.75
2023-01-25T23:34:07.106Z,100952.94
2023-01-25T23:36:35.841Z,100955.31
2023-01-25T23:39:03.185Z,100951.00
2023-01-25T23:41:30.613Z,100951.16
2023-01-25T23:43:57.527Z,100944.00
2023-01-25T23:46:24.907Z,100944.06
2023-01-25T23:48:51.830Z,100935.38
2023-01-25T23:51:19.173Z,100928.28
2023-01-25T23:53:46.119Z,100927.56
2023-01-25T23:56:16.444Z,100929.16
2023-01-25T23:58:43.209Z,100919.97
